首页
METAR-TAF:

METAR-TAF

机场 :

格域機場, 英格兰

纬度: 51-09N, 经度: 000-11W, 海拔: 62米

当前天气观测

该预报发布于20分钟前的23:50 UTC
风速4节,风向西北
温度 17°C
湿度 94%
气压 1018 hPa
能見度: 7000
小雨

METAR: EGKK 242350Z 31004KT 7000 -RA NSC 17/16 Q1018

时间: 01:10 (00:10 UTC)

预报

该预报发布于1小时和8分钟前的23:02 UTC
预报有效从25日的 00点(UTC)到 26日的 06点(UTC)
风速7节,风向
能见度10公里或以上
散云层高于4500英尺
成为
从 25日的 00点(UTC)到 25日的 03点(UTC)
能見度: 8000
几率 40% :
短暂存在
从 25日的 00点(UTC)到 25日的 03点(UTC)
能見度: 3000
多云层高于900英尺
多云层高于4500英尺, 积雨云.
雷暴, 大雨
几率 30% :
短暂存在
从 25日的 03点(UTC)到 25日的 06点(UTC)
风速15节,风向多变,有时为25节阵风
能見度: 1200
多云层高于300英尺
雷暴, 大雨, 轻雾
成为
从 25日的 06点(UTC)到 25日的 09点(UTC)
能见度10公里或以上
几率 30% :
短暂存在
从 25日的 06点(UTC)到 25日的 11点(UTC)
多云层高于700英尺
几率 30% :
短暂存在
从 25日的 12点(UTC)到 25日的 18点(UTC)
能見度: 6000
阵雨
成为
从 25日的 23点(UTC)到 26日的 02点(UTC)
多云层高于700英尺
几率 30%
从 26日的 02点(UTC)到 26日的 06点(UTC)
能見度: 8000
多云层高于400英尺

TAF: EGKK 242302Z 2500/2606 36007KT 9999 SCT045 BECMG 2500/2503 8000 RA PROB40 TEMPO 2500/2503 3000 +TSRA BKN009 BKN045CB PROB30 TEMPO 2503/2506 VRB15G25KT 1200 +TSRA BR BKN003 BECMG 2506/2509 9999 NSW PROB30 TEMPO 2506/2511 BKN007 PROB30 TEMPO 2512/2518 6000 SHRA BECMG 2523/2602 BKN007 PROB30 2602/2606 8000 BKN004

超过4000个机场的气象观测和天气预报(METAR&TAF报告)。

可查询的气象台以黄色和红色小点在地图上表示。

将鼠标移到小点上方,可查看气象台名称。

然后点击查看天气观测和预报。

如需切换地图:点击带黑十字的绿色按钮放大地图;点击带横线的绿色按钮缩小地图;或者点击绿色箭头查看邻近地区的地图。


METAR-TAF: